Time;durP1;ratioP1;P1;durP2;ratioP2;P2;SDS_P1;SDS_P2;PMS_P1;PMS_P2;Temp;Humidity;BMP_temperature;BMP_pressure;BME280_temperature;BME280_humidity;BME280_pressure;Samples;Min_cycle;Max_cycle;Signal;HPM_P1;HPM_P2
2022/04/09 00:00:59;;;;;;;10.25;3.05;;;;;;;4.51;71.39;98412.19;4965835;28;20046;-63
2022/04/09 00:03:24;;;;;;;12.55;2.88;;;;;;;4.52;71.53;98414.72;4966022;28;20031;-65
2022/04/09 00:05:50;;;;;;;17.17;3.33;;;;;;;4.53;71.36;98426.03;4966241;28;20468;-65
2022/04/09 00:08:15;;;;;;;9.63;2.75;;;;;;;4.56;71.31;98422.41;4966116;28;20132;-65
2022/04/09 00:10:40;;;;;;;9.10;3.65;;;;;;;4.57;71.39;98422.31;4965740;28;24002;-66
2022/04/09 00:13:06;;;;;;;9.02;3.45;;;;;;;4.58;71.47;98434.47;4965468;28;20046;-65
2022/04/09 00:15:31;;;;;;;7.28;3.40;;;;;;;4.57;71.67;98438.00;4965814;28;20490;-66
2022/04/09 00:17:56;;;;;;;13.15;3.42;;;;;;;4.55;71.86;98438.97;4966141;28;20066;-65
2022/04/09 00:20:22;;;;;;;6.03;2.97;;;;;;;4.54;72.02;98452.97;4965612;28;20070;-66
2022/04/09 00:22:47;;;;;;;14.63;4.25;;;;;;;4.53;71.95;98454.72;4965744;28;20395;-66
2022/04/09 00:25:14;;;;;;;11.02;3.53;;;;;;;4.52;71.64;98466.06;4965840;28;20383;-65
2022/04/09 00:27:40;;;;;;;8.27;3.17;;;;;;;4.53;71.67;98473.00;4965689;28;20605;-66
2022/04/09 00:30:09;;;;;;;10.05;3.97;;;;;;;4.50;71.74;98468.75;4965475;28;20053;-65
2022/04/09 00:32:35;;;;;;;14.80;4.97;;;;;;;4.47;71.99;98481.94;4968204;28;20039;-65
2022/04/09 00:35:02;;;;;;;12.13;3.35;;;;;;;4.47;71.65;98476.72;4970724;28;20082;-64
2022/04/09 00:37:29;;;;;;;12.63;5.32;;;;;;;4.44;72.33;98484.69;4970383;28;20058;-65
2022/04/09 00:39:54;;;;;;;6.47;3.30;;;;;;;4.40;71.69;98487.50;4970656;28;20046;-66
2022/04/09 00:42:20;;;;;;;14.95;4.15;;;;;;;4.37;72.35;98492.84;4970321;28;20031;-65
2022/04/09 00:44:46;;;;;;;12.35;5.13;;;;;;;4.33;72.42;98497.34;4970545;28;20043;-65
2022/04/09 00:47:12;;;;;;;9.35;4.15;;;;;;;4.29;72.35;98498.41;4970202;28;20043;-64
2022/04/09 00:49:39;;;;;;;14.95;6.85;;;;;;;4.30;72.37;98508.78;4968774;28;20067;-65
2022/04/09 00:52:07;;;;;;;7.05;2.90;;;;;;;4.28;72.48;98507.16;4972884;28;20054;-65
2022/04/09 00:54:36;;;;;;;7.40;3.60;;;;;;;4.27;72.34;98514.13;4974452;28;20035;-65
2022/04/09 00:57:05;;;;;;;9.93;4.78;;;;;;;4.27;72.68;98526.34;4974676;28;20035;-65
2022/04/09 00:59:33;;;;;;;16.73;4.32;;;;;;;4.23;72.66;98528.25;4977557;28;20031;-66
2022/04/09 01:01:59;;;;;;;11.35;4.47;;;;;;;4.23;73.18;98533.47;4970892;28;20034;-66
2022/04/09 01:04:25;;;;;;;11.10;3.83;;;;;;;4.24;72.85;98542.13;4974949;28;20479;-66
2022/04/09 01:06:51;;;;;;;13.93;3.92;;;;;;;4.21;73.29;98547.44;4974167;28;20039;-65
2022/04/09 01:09:17;;;;;;;9.95;4.00;;;;;;;4.20;73.36;98545.78;4974242;28;20030;-63
2022/04/09 01:11:42;;;;;;;9.68;4.15;;;;;;;4.20;73.50;98556.22;4973018;28;20337;-64
2022/04/09 01:14:10;;;;;;;14.43;4.60;;;;;;;4.25;73.26;98557.69;4974415;28;20062;-66
2022/04/09 01:16:35;;;;;;;14.23;4.97;;;;;;;4.26;73.05;98563.78;4973742;28;20046;-65
2022/04/09 01:19:01;;;;;;;13.23;5.15;;;;;;;4.25;73.25;98575.94;4974810;28;20395;-65
2022/04/09 01:21:28;;;;;;;10.23;3.95;;;;;;;4.23;73.02;98577.81;4975254;28;20047;-65
2022/04/09 01:23:55;;;;;;;9.95;4.35;;;;;;;4.19;73.48;98581.44;4973226;28;20086;-65
2022/04/09 01:26:21;;;;;;;15.48;4.93;;;;;;;4.19;73.72;98586.66;4973874;28;20030;-66
2022/04/09 01:28:47;;;;;;;11.25;3.65;;;;;;;4.16;73.44;98592.03;4973358;28;20035;-65
2022/04/09 01:31:13;;;;;;;11.10;4.40;;;;;;;4.12;73.78;98592.22;4973107;28;20059;-65
2022/04/09 01:33:39;;;;;;;14.25;3.97;;;;;;;4.11;73.47;98596.59;4974393;28;20055;-65
2022/04/09 01:36:04;;;;;;;9.80;4.45;;;;;;;4.07;73.81;98603.69;4973520;28;20035;-65
2022/04/09 01:38:30;;;;;;;13.73;6.20;;;;;;;4.06;74.15;98611.56;4973767;28;20039;-65
2022/04/09 01:40:55;;;;;;;14.20;4.53;;;;;;;4.06;74.10;98617.63;4973243;28;20089;-64
2022/04/09 01:43:21;;;;;;;12.07;4.22;;;;;;;4.05;73.99;98622.91;4972606;28;20054;-66
2022/04/09 01:45:47;;;;;;;13.73;4.40;;;;;;;4.05;73.97;98626.34;4973553;28;20042;-65
2022/04/09 01:48:12;;;;;;;18.30;6.30;;;;;;;4.05;74.75;98626.34;4973222;28;20483;-65
2022/04/09 01:50:38;;;;;;;11.52;4.65;;;;;;;4.08;74.35;98639.25;4973472;28;20038;-65
2022/04/09 01:53:04;;;;;;;14.38;5.15;;;;;;;4.07;74.06;98642.78;4973293;28;20035;-65
2022/04/09 01:55:32;;;;;;;16.15;5.20;;;;;;;4.12;74.34;98650.44;4974689;28;20081;-65
2022/04/09 01:57:58;;;;;;;13.77;4.70;;;;;;;4.15;74.05;98642.47;4975467;28;20126;-64
2022/04/09 02:00:24;;;;;;;17.02;5.55;;;;;;;4.18;74.40;98659.75;4975457;28;20074;-65
2022/04/09 02:02:49;;;;;;;12.32;4.97;;;;;;;4.17;74.16;98656.31;4973754;28;20038;-63
2022/04/09 02:05:15;;;;;;;12.98;4.55;;;;;;;4.14;74.65;98661.66;4973861;28;20595;-66
2022/04/09 02:07:42;;;;;;;14.73;6.03;;;;;;;4.13;74.51;98661.72;4972181;28;20048;-65
2022/04/09 02:10:08;;;;;;;18.27;7.93;;;;;;;4.09;75.05;98664.44;4972856;28;20042;-65
2022/04/09 02:12:35;;;;;;;20.08;6.43;;;;;;;4.07;74.96;98676.69;4972431;28;20410;-64
2022/04/09 02:15:05;;;;;;;16.88;5.30;;;;;;;4.10;74.97;98675.72;4973136;28;20038;-64
2022/04/09 02:17:30;;;;;;;16.00;6.15;;;;;;;4.12;74.87;98678.28;4973541;28;20511;-64
2022/04/09 02:19:55;;;;;;;12.73;5.30;;;;;;;4.16;75.10;98680.69;4971573;28;20043;-65
2022/04/09 02:22:21;;;;;;;15.27;4.70;;;;;;;4.16;74.78;98679.81;4972189;28;20045;-65
2022/04/09 02:24:49;;;;;;;13.38;5.45;;;;;;;4.19;74.77;98688.41;4972836;28;20034;-63
2022/04/09 02:27:15;;;;;;;13.25;4.25;;;;;;;4.21;74.28;98683.09;4972799;28;20038;-65
2022/04/09 02:29:40;;;;;;;10.23;4.15;;;;;;;4.20;74.99;98687.47;4972871;28;20155;-65
2022/04/09 02:32:06;;;;;;;13.70;4.85;;;;;;;4.23;74.63;98694.31;4970646;28;20073;-65
2022/04/09 02:34:31;;;;;;;17.23;6.30;;;;;;;4.25;74.82;98701.16;4972757;28;20042;-63
2022/04/09 02:36:57;;;;;;;13.07;4.53;;;;;;;4.27;74.57;98701.97;4972843;28;20031;-65
2022/04/09 02:39:22;;;;;;;17.83;5.65;;;;;;;4.30;74.16;98700.97;4972519;28;20459;-65
2022/04/09 02:41:53;;;;;;;17.52;5.10;;;;;;;4.30;73.93;98703.59;4970460;28;20042;-64
2022/04/09 02:44:18;;;;;;;18.23;6.00;;;;;;;4.27;74.30;98703.72;4973112;28;20038;-66
2022/04/09 02:46:47;;;;;;;15.63;4.47;;;;;;;4.23;74.33;98716.06;4972615;28;20043;-65
2022/04/09 02:49:13;;;;;;;18.85;4.72;;;;;;;4.19;74.55;98714.47;4972491;28;20043;-65
2022/04/09 02:51:38;;;;;;;15.25;5.20;;;;;;;4.18;74.66;98714.53;4973379;28;20372;-65
2022/04/09 02:54:03;;;;;;;18.95;7.20;;;;;;;4.15;74.74;98722.50;4973924;28;20069;-64
2022/04/09 02:56:29;;;;;;;22.42;6.60;;;;;;;4.11;74.73;98731.34;4973363;28;20043;-65
2022/04/09 02:58:54;;;;;;;18.23;5.22;;;;;;;4.08;75.24;98734.91;4973109;28;20027;-65
2022/04/09 03:01:19;;;;;;;17.80;5.05;;;;;;;4.05;75.29;98740.25;4971795;28;20050;-64
2022/04/09 03:03:45;;;;;;;20.08;5.80;;;;;;;4.03;75.81;98747.28;4972590;28;20039;-65
2022/04/09 03:06:10;;;;;;;22.42;7.97;;;;;;;4.01;75.95;98744.75;4972227;28;20035;-63
2022/04/09 03:08:36;;;;;;;28.63;6.50;;;;;;;4.00;75.75;98752.63;4971009;28;20478;-63
2022/04/09 03:11:01;;;;;;;21.90;5.03;;;;;;;3.99;76.25;98750.94;4970965;28;20053;-65
2022/04/09 03:13:26;;;;;;;23.25;5.85;;;;;;;3.97;75.93;98743.16;4971478;28;20053;-64
2022/04/09 03:15:52;;;;;;;12.70;5.22;;;;;;;3.98;76.26;98754.44;4971746;28;20439;-64
2022/04/09 03:18:17;;;;;;;18.00;6.60;;;;;;;3.95;75.91;98755.41;4971637;28;20067;-64
2022/04/09 03:20:42;;;;;;;17.08;5.95;;;;;;;3.94;76.04;98758.94;4971256;28;20066;-66
2022/04/09 03:23:08;;;;;;;21.25;6.45;;;;;;;3.92;76.39;98765.13;4971389;28;20093;-66
2022/04/09 03:25:33;;;;;;;18.63;6.10;;;;;;;3.88;76.60;98767.00;4971662;28;20038;-65
2022/04/09 03:27:59;;;;;;;18.45;5.43;;;;;;;3.86;76.14;98767.06;4972519;28;20042;-66
2022/04/09 03:30:24;;;;;;;22.70;7.90;;;;;;;3.86;76.45;98771.41;4971741;28;20487;-64
2022/04/09 03:32:52;;;;;;;16.58;4.40;;;;;;;3.84;76.57;98773.25;4971181;28;20114;-65
2022/04/09 03:35:17;;;;;;;13.30;4.47;;;;;;;3.83;77.20;98776.75;4971244;28;20042;-65
2022/04/09 03:37:45;;;;;;;17.70;5.38;;;;;;;3.80;76.99;98782.94;4971331;28;20038;-65
2022/04/09 03:40:12;;;;;;;21.70;4.78;;;;;;;3.81;76.79;98794.19;4971401;28;20042;-65
2022/04/09 03:42:37;;;;;;;19.30;5.25;;;;;;;3.79;76.95;98802.09;4970989;28;20031;-65
2022/04/09 03:45:03;;;;;;;12.07;5.00;;;;;;;3.78;76.82;98805.59;4972179;28;20088;-65
2022/04/09 03:47:32;;;;;;;23.60;5.13;;;;;;;3.78;77.08;98809.97;4974455;28;20122;-65
2022/04/09 03:50:00;;;;;;;20.90;4.70;;;;;;;3.77;76.86;98814.34;4971128;28;20093;-65
2022/04/09 03:52:25;;;;;;;12.57;5.60;;;;;;;3.79;77.25;98815.13;4970920;28;20556;-65
2022/04/09 03:54:50;;;;;;;18.17;6.00;;;;;;;3.77;76.93;98811.72;4971093;28;20071;-65
2022/04/09 03:57:16;;;;;;;16.25;6.35;;;;;;;3.77;76.97;98816.09;4971245;28;20118;-65
2022/04/09 03:59:42;;;;;;;16.90;5.80;;;;;;;3.74;77.35;98821.41;4968801;28;20039;-66
2022/04/09 04:02:07;;;;;;;13.40;5.00;;;;;;;3.75;76.82;98828.31;4970487;28;20169;-65
2022/04/09 04:04:34;;;;;;;21.40;5.93;;;;;;;3.70;76.89;98836.31;4970979;28;20051;-65
2022/04/09 04:06:59;;;;;;;13.48;4.55;;;;;;;3.71;77.02;98826.72;4970936;28;20035;-65
2022/04/09 04:09:24;;;;;;;19.35;5.07;;;;;;;3.70;76.72;98836.31;4970793;28;20053;-65
2022/04/09 04:11:50;;;;;;;24.42;5.55;;;;;;;3.70;76.89;98843.28;4968684;28;20062;-64
2022/04/09 04:14:15;;;;;;;16.95;6.43;;;;;;;3.68;76.63;98838.13;4970844;28;20038;-65
2022/04/09 04:16:40;;;;;;;14.38;4.60;;;;;;;3.68;76.60;98848.53;4971088;28;20039;-65
2022/04/09 04:19:06;;;;;;;14.57;4.10;;;;;;;3.66;76.47;98848.59;4969132;28;20066;-64
2022/04/09 04:21:31;;;;;;;26.65;5.63;;;;;;;3.66;76.64;98851.19;4970056;28;20154;-66
2022/04/09 04:23:56;;;;;;;17.40;5.00;;;;;;;3.64;76.54;98866.06;4970610;28;20584;-66
2022/04/09 04:26:22;;;;;;;23.90;5.57;;;;;;;3.62;76.40;98867.88;4970420;28;20462;-65
2022/04/09 04:28:48;;;;;;;16.40;5.75;;;;;;;3.60;76.86;98874.88;4971806;28;20123;-65
2022/04/09 04:31:19;;;;;;;17.08;6.72;;;;;;;3.61;76.58;98876.56;4971482;28;20098;-65
2022/04/09 04:33:45;;;;;;;22.45;5.68;;;;;;;3.60;77.00;98884.47;4973390;28;20050;-66
2022/04/09 04:36:11;;;;;;;27.92;7.40;;;;;;;3.60;76.50;98879.25;4973354;28;20062;-66
2022/04/09 04:38:36;;;;;;;20.63;5.55;;;;;;;3.61;76.73;98886.16;4972214;28;20541;-65
2022/04/09 04:41:04;;;;;;;19.98;6.88;;;;;;;3.60;76.69;98884.47;4969420;28;20062;-66
2022/04/09 04:43:30;;;;;;;19.00;5.72;;;;;;;3.59;76.65;98895.78;4970761;28;20499;-65
2022/04/09 04:45:55;;;;;;;15.30;6.10;;;;;;;3.59;76.66;98895.78;4970316;28;20141;-65
2022/04/09 04:48:21;;;;;;;19.67;6.30;;;;;;;3.60;76.43;98900.94;4970734;28;20062;-64
2022/04/09 04:50:46;;;;;;;16.85;5.68;;;;;;;3.60;76.83;98903.56;4970582;28;20035;-65
2022/04/09 04:53:12;;;;;;;16.42;6.45;;;;;;;3.58;76.66;98913.19;4970316;28;20101;-65
2022/04/09 04:55:38;;;;;;;18.25;5.60;;;;;;;3.61;76.46;98914.81;4970957;28;20047;-66
2022/04/09 04:58:03;;;;;;;19.60;5.78;;;;;;;3.62;76.36;98924.38;4970259;28;20078;-66
2022/04/09 05:00:29;;;;;;;14.63;6.28;;;;;;;3.65;76.30;98937.28;4970093;28;20058;-66
2022/04/09 05:02:54;;;;;;;12.15;5.35;;;;;;;3.68;76.55;98929.34;4977269;28;20039;-65
2022/04/09 05:05:20;;;;;;;18.98;5.72;;;;;;;3.75;77.01;98940.41;4971687;28;20093;-64
2022/04/09 05:07:50;;;;;;;16.27;6.22;;;;;;;3.80;77.65;98939.34;4972315;28;20046;-65
2022/04/09 05:10:21;;;;;;;15.52;6.38;;;;;;;3.82;77.28;98942.75;4973920;28;20560;-65
2022/04/09 05:12:47;;;;;;;20.85;6.88;;;;;;;3.81;77.19;98948.00;4979573;28;20070;-65
2022/04/09 05:15:15;;;;;;;15.40;4.63;;;;;;;3.76;77.57;98952.53;4974963;28;20101;-64
2022/04/09 05:17:41;;;;;;;13.20;4.55;;;;;;;3.75;77.66;98959.50;4973671;28;20419;-64
2022/04/09 05:20:09;;;;;;;17.48;5.15;;;;;;;3.75;77.67;98962.13;4972266;28;20458;-65
2022/04/09 05:22:36;;;;;;;17.40;6.38;;;;;;;3.76;77.12;98971.63;4970708;28;20045;-63
2022/04/09 05:25:03;;;;;;;14.75;4.53;;;;;;;3.82;77.71;98970.59;4970842;28;20210;-63
2022/04/09 05:27:28;;;;;;;10.55;4.82;;;;;;;3.86;77.49;98969.56;4971233;28;20054;-66
2022/04/09 05:29:54;;;;;;;15.27;6.65;;;;;;;3.87;77.11;98972.13;4971027;28;20046;-64
2022/04/09 05:32:19;;;;;;;13.68;5.50;;;;;;;3.88;77.14;98978.19;4970220;28;20030;-65
2022/04/09 05:34:46;;;;;;;21.33;6.15;;;;;;;3.88;77.12;98978.19;4971036;28;20517;-65
2022/04/09 05:37:11;;;;;;;17.00;5.22;;;;;;;3.90;77.05;98985.97;4971482;28;20121;-65
2022/04/09 05:39:37;;;;;;;28.58;5.93;;;;;;;3.81;76.81;98979.28;4974813;28;20215;-64
2022/04/09 05:42:02;;;;;;;20.20;7.00;;;;;;;3.76;77.71;98982.06;4973991;28;20093;-64
2022/04/09 05:44:28;;;;;;;17.33;5.95;;;;;;;3.75;77.31;98982.13;4974637;28;20162;-63
2022/04/09 05:46:53;;;;;;;26.05;6.70;;;;;;;3.73;78.08;98984.78;4974024;28;20046;-64
2022/04/09 05:49:20;;;;;;;23.23;5.47;;;;;;;3.78;77.17;98989.84;4973514;28;20413;-64
2022/04/09 05:51:46;;;;;;;16.77;5.97;;;;;;;3.84;77.62;98993.09;4972688;28;20380;-64
2022/04/09 05:54:11;;;;;;;20.10;4.82;;;;;;;3.91;76.74;98996.31;4973389;28;20099;-65
2022/04/09 05:56:37;;;;;;;17.98;5.10;;;;;;;4.07;76.44;99002.72;4973762;28;20113;-65
2022/04/09 05:59:02;;;;;;;28.35;6.30;;;;;;;4.21;76.17;99015.28;4974657;28;20319;-64
2022/04/09 06:01:28;;;;;;;13.27;4.63;;;;;;;4.35;75.27;99008.69;4974024;28;20051;-66
2022/04/09 06:03:54;;;;;;;12.65;5.03;;;;;;;4.50;74.53;99009.00;4972779;28;20117;-65
2022/04/09 06:06:19;;;;;;;17.83;4.68;;;;;;;4.62;73.65;99014.66;4974597;28;20059;-64
2022/04/09 06:08:45;;;;;;;15.95;4.32;;;;;;;4.70;73.24;99012.59;4972845;28;20585;-64
2022/04/09 06:11:11;;;;;;;15.98;5.93;;;;;;;4.79;73.19;99022.69;4972996;28;20034;-63
2022/04/09 06:13:36;;;;;;;25.60;6.35;;;;;;;4.97;72.51;99028.97;4973906;28;20752;-63
2022/04/09 06:16:06;;;;;;;26.25;7.90;;;;;;;5.07;72.04;99026.84;4974002;28;20050;-63
2022/04/09 06:18:31;;;;;;;21.65;4.30;;;;;;;5.27;71.89;99033.94;4972742;28;20039;-65
2022/04/09 06:20:56;;;;;;;17.88;5.13;;;;;;;5.49;71.09;99039.13;4973463;28;20046;-65
2022/04/09 06:23:22;;;;;;;11.40;4.80;;;;;;;5.73;70.13;99045.13;5004011;28;20037;-66
2022/04/09 06:25:47;;;;;;;23.70;7.35;;;;;;;5.95;69.13;99040.72;4973330;28;20050;-67
2022/04/09 06:28:13;;;;;;;13.00;5.40;;;;;;;6.08;68.31;99048.91;4972265;28;20038;-67
2022/04/09 06:30:38;;;;;;;14.38;4.85;;;;;;;5.98;68.02;99043.22;4972676;28;20059;-67
2022/04/09 06:33:04;;;;;;;28.75;5.93;;;;;;;6.02;67.13;99041.31;4972123;28;20154;-67
2022/04/09 06:35:29;;;;;;;15.02;5.45;;;;;;;6.01;67.47;99052.72;4972669;28;20558;-67
2022/04/09 06:37:54;;;;;;;18.55;6.78;;;;;;;5.99;67.73;99058.00;4974247;28;20034;-66
2022/04/09 06:40:20;;;;;;;19.73;4.90;;;;;;;6.00;67.26;99058.84;4972319;28;20039;-66
2022/04/09 06:42:45;;;;;;;20.05;5.45;;;;;;;6.59;66.06;99067.63;4972543;28;20033;-68
2022/04/09 06:45:11;;;;;;;19.23;5.97;;;;;;;7.10;64.37;99071.44;4972987;28;20034;-66
2022/04/09 06:47:38;;;;;;;17.88;7.40;;;;;;;7.40;62.86;99073.53;4970570;28;20031;-67
2022/04/09 06:50:11;;;;;;;15.93;4.72;;;;;;;7.68;62.13;99068.66;4972819;28;20458;-65
2022/04/09 06:52:37;;;;;;;22.35;4.68;;;;;;;7.85;61.26;99074.84;4973311;28;20038;-64
2022/04/09 06:55:04;;;;;;;22.20;6.55;;;;;;;8.16;60.81;99079.41;4973630;28;20043;-65
2022/04/09 06:57:29;;;;;;;15.90;5.40;;;;;;;8.56;58.80;99088.72;4972149;28;20109;-66
2022/04/09 06:59:59;;;;;;;18.00;5.60;;;;;;;8.78;58.55;99080.56;4972223;28;20071;-66
2022/04/09 07:02:25;;;;;;;16.77;4.80;;;;;;;8.98;57.24;99090.03;4971500;28;20085;-67
2022/04/09 07:04:51;;;;;;;19.85;5.95;;;;;;;9.12;57.21;99094.53;4973373;28;20486;-66
2022/04/09 07:07:27;;;;;;;16.77;5.78;;;;;;;9.41;56.91;99092.94;4969379;28;20114;-65
2022/04/09 07:10:09;;;;;;;17.88;7.10;;;;;;;9.26;56.44;99098.22;4968296;28;20117;-65
2022/04/09 07:12:36;;;;;;;25.98;5.55;;;;;;;9.13;57.02;99093.63;4968689;28;20035;-64
2022/04/09 07:15:02;;;;;;;14.07;4.78;;;;;;;9.54;55.17;99098.34;4973355;28;20027;-65
2022/04/09 07:17:29;;;;;;;22.85;5.60;;;;;;;9.95;55.30;99108.34;4973141;28;20042;-65
2022/04/09 07:20:05;;;;;;;19.48;4.97;;;;;;;9.73;55.48;99113.13;4970780;28;20027;-64
2022/04/09 07:22:32;;;;;;;16.40;5.57;;;;;;;8.84;57.71;99124.09;4968554;28;20058;-65
2022/04/09 07:24:57;;;;;;;24.42;6.90;;;;;;;8.14;61.29;99145.09;4973173;28;20442;-64
2022/04/09 07:27:37;;;;;;;23.98;7.68;;;;;;;7.43;64.38;99138.94;4973203;28;20043;-66
2022/04/09 07:30:04;;;;;;;18.60;5.43;;;;;;;6.93;66.57;99153.44;4971808;28;20395;-66
2022/04/09 07:32:30;;;;;;;22.13;6.18;;;;;;;6.67;67.16;99157.22;4971954;28;20027;-66
2022/04/09 07:34:55;;;;;;;22.40;7.90;;;;;;;6.51;68.85;99167.47;4971856;28;20188;-65
2022/04/09 07:37:21;;;;;;;22.38;4.93;;;;;;;6.39;69.09;99162.78;4970546;28;20034;-65
2022/04/09 07:39:46;;;;;;;20.58;5.32;;;;;;;6.31;70.06;99157.84;4968109;28;20495;-67
2022/04/09 07:42:11;;;;;;;21.58;5.15;;;;;;;6.11;68.46;99169.16;4967968;28;20038;-65
2022/04/09 07:44:37;;;;;;;14.63;5.13;;;;;;;6.03;69.06;99173.88;4968159;28;20166;-66
2022/04/09 07:47:02;;;;;;;16.67;4.32;;;;;;;6.00;68.41;99177.41;4965384;28;20178;-65
2022/04/09 07:49:27;;;;;;;14.50;4.25;;;;;;;5.94;68.77;99187.31;4967143;28;20414;-65
2022/04/09 07:51:54;;;;;;;13.00;4.00;;;;;;;5.74;67.90;99186.28;4964796;28;20069;-67
2022/04/09 07:54:20;;;;;;;13.65;4.65;;;;;;;5.55;69.62;99191.38;4968963;28;20026;-67
2022/04/09 07:56:46;;;;;;;9.38;2.72;;;;;;;5.34;69.82;99193.06;4975122;28;20031;-67
2022/04/09 07:59:11;;;;;;;8.10;2.65;;;;;;;5.20;70.95;99195.31;4971564;28;20050;-65
2022/04/09 08:01:37;;;;;;;11.90;3.67;;;;;;;5.09;71.49;99194.84;4968117;28;20047;-66
2022/04/09 08:04:03;;;;;;;10.55;3.53;;;;;;;5.04;70.48;99196.78;4967520;28;20042;-65
2022/04/09 08:06:28;;;;;;;11.80;2.50;;;;;;;4.99;70.87;99203.94;4971459;28;20046;-65
2022/04/09 08:08:54;;;;;;;8.45;2.80;;;;;;;5.00;71.11;99200.44;4971027;28;20030;-65
2022/04/09 08:11:19;;;;;;;5.45;1.90;;;;;;;5.09;70.99;99205.28;4970719;28;20787;-63
2022/04/09 08:13:44;;;;;;;15.25;3.17;;;;;;;5.24;70.51;99212.59;4974532;28;20089;-64
2022/04/09 08:16:11;;;;;;;10.02;3.22;;;;;;;5.36;70.28;99211.28;4974387;28;20035;-66
2022/04/09 08:18:39;;;;;;;9.48;3.17;;;;;;;5.42;69.77;99207.59;4973093;28;20043;-65
2022/04/09 08:21:05;;;;;;;12.45;3.53;;;;;;;5.64;70.43;99207.63;4971903;28;20046;-64
2022/04/09 08:23:31;;;;;;;10.00;3.60;;;;;;;6.65;67.40;99209.66;4972541;28;20053;-65
2022/04/09 08:25:57;;;;;;;16.20;6.60;;;;;;;7.13;66.55;99211.97;4969986;28;20042;-66
2022/04/09 08:28:22;;;;;;;19.23;5.85;;;;;;;7.63;64.74;99204.44;4973230;28;20038;-66
2022/04/09 08:30:48;;;;;;;22.85;7.13;;;;;;;7.84;63.68;99199.94;4971570;28;20105;-68
2022/04/09 08:33:15;;;;;;;16.60;5.72;;;;;;;8.63;62.05;99207.50;4972018;28;20031;-68
2022/04/09 08:35:43;;;;;;;13.82;4.97;;;;;;;9.53;60.32;99196.66;4972943;28;20109;-65
2022/04/09 08:38:08;;;;;;;11.95;5.53;;;;;;;10.21;57.66;99196.34;4972636;28;20394;-65
2022/04/09 08:40:36;;;;;;;15.65;7.43;;;;;;;10.63;54.89;99200.13;4971389;28;20041;-65
2022/04/09 08:43:03;;;;;;;16.95;5.55;;;;;;;10.99;54.29;99195.38;4970595;28;20411;-64
2022/04/09 08:45:35;;;;;;;16.42;4.47;;;;;;;11.05;54.46;99205.56;4970545;28;20427;-66
2022/04/09 08:48:02;;;;;;;16.30;6.32;;;;;;;11.19;53.16;99200.28;4967584;28;20065;-67
2022/04/09 08:50:28;;;;;;;23.33;5.35;;;;;;;11.28;52.55;99201.53;4970388;28;20038;-67
2022/04/09 08:52:54;;;;;;;13.93;4.65;;;;;;;11.21;52.94;99200.22;4970616;28;20038;-67
2022/04/09 08:55:19;;;;;;;15.45;5.03;;;;;;;11.18;50.98;99202.09;4960145;28;20055;-65
2022/04/09 08:57:46;;;;;;;17.45;4.53;;;;;;;11.51;51.29;99208.00;4962720;28;20046;-67
2022/04/09 09:00:13;;;;;;;27.95;5.68;;;;;;;10.98;52.99;99201.59;4966298;28;20069;-67
2022/04/09 09:02:50;;;;;;;11.68;3.75;;;;;;;10.89;51.90;99205.66;4965626;28;20031;-67
2022/04/09 09:05:28;;;;;;;13.95;4.10;;;;;;;11.04;51.96;99201.22;4965518;28;20058;-65
2022/04/09 09:07:53;;;;;;;16.80;5.68;;;;;;;10.69;52.75;99201.56;4965767;28;20042;-66
2022/04/09 09:10:19;;;;;;;14.77;4.82;;;;;;;10.35;53.85;99210.56;4965870;28;20042;-66
2022/04/09 09:12:56;;;;;;;11.07;5.57;;;;;;;10.71;52.53;99199.69;4968339;28;20070;-66
2022/04/09 09:15:21;;;;;;;13.80;4.20;;;;;;;10.86;49.28;99209.31;4969363;28;20042;-63
2022/04/09 09:17:49;;;;;;;13.18;4.18;;;;;;;10.37;49.93;99208.72;4969676;28;20045;-66
2022/04/09 09:20:14;;;;;;;13.70;4.55;;;;;;;10.75;47.32;99214.34;4969838;28;20133;-65
2022/04/09 09:22:44;;;;;;;20.30;6.25;;;;;;;11.79;43.78;99215.06;4967615;28;20620;-65
2022/04/09 09:25:12;;;;;;;13.45;4.25;;;;;;;10.91;43.83;99216.94;4967478;28;20046;-65
2022/04/09 09:27:40;;;;;;;14.07;3.95;;;;;;;10.80;45.18;99222.00;4968347;28;20814;-65
2022/04/09 09:30:07;;;;;;;13.52;4.72;;;;;;;12.29;42.33;99218.06;4968921;28;20912;-65
2022/04/09 09:32:34;;;;;;;13.55;5.43;;;;;;;12.56;42.05;99218.88;4968901;28;20504;-66
2022/04/09 09:34:59;;;;;;;17.58;3.72;;;;;;;11.91;43.10;99214.31;4969834;28;20491;-65
2022/04/09 09:37:28;;;;;;;14.05;4.07;;;;;;;12.02;42.61;99216.25;4969022;28;20089;-66
2022/04/09 09:39:54;;;;;;;7.78;4.38;;;;;;;12.55;37.71;99217.19;4969201;28;20034;-65
2022/04/09 09:42:21;;;;;;;11.52;3.88;;;;;;;13.16;37.14;99227.22;4968190;28;20092;-67
2022/04/09 09:44:47;;;;;;;7.65;3.85;;;;;;;13.87;34.88;99209.88;4964133;28;20039;-67
2022/04/09 09:47:14;;;;;;;14.07;4.28;;;;;;;14.71;34.09;99219.59;4949629;28;20046;-67
2022/04/09 09:49:58;;;;;;;8.57;3.63;;;;;;;15.34;32.09;99208.63;4968875;28;20380;-65
2022/04/09 09:52:26;;;;;;;8.35;3.33;;;;;;;15.66;32.54;99219.38;4968295;28;20057;-67
2022/04/09 09:54:59;;;;;;;8.15;4.22;;;;;;;16.04;31.76;99218.97;4968714;28;20047;-66
2022/04/09 09:57:27;;;;;;;11.90;3.53;;;;;;;16.15;32.04;99217.28;4966296;28;20089;-67
2022/04/09 09:59:55;;;;;;;17.52;4.28;;;;;;;15.79;34.19;99211.28;4968440;28;20506;-67
2022/04/09 10:02:21;;;;;;;8.07;3.42;;;;;;;14.58;34.45;99213.53;4967874;28;20039;-66
2022/04/09 10:04:47;;;;;;;7.50;3.08;;;;;;;15.41;33.27;99221.31;4968412;28;20042;-66
2022/04/09 10:07:16;;;;;;;12.82;3.33;;;;;;;14.70;34.00;99211.78;4968589;28;20034;-66
2022/04/09 10:09:43;;;;;;;14.35;4.03;;;;;;;15.15;33.47;99220.66;4968276;28;20046;-66
2022/04/09 10:12:14;;;;;;;10.77;3.28;;;;;;;14.64;32.75;99213.06;4967565;28;20039;-65
2022/04/09 10:14:40;;;;;;;6.75;3.17;;;;;;;13.53;34.52;99225.53;4968019;28;20047;-66
2022/04/09 10:17:08;;;;;;;9.75;4.10;;;;;;;12.97;34.62;99215.25;4967675;28;20039;-65
2022/04/09 10:19:41;;;;;;;12.75;4.70;;;;;;;13.70;34.80;99222.53;4967566;28;20035;-65
2022/04/09 10:22:06;;;;;;;9.50;3.70;;;;;;;15.17;32.88;99216.09;4967184;28;20774;-68
2022/04/09 10:24:33;;;;;;;10.07;3.22;;;;;;;16.22;31.59;99200.69;4965656;28;20051;-66
2022/04/09 10:27:02;;;;;;;7.95;3.25;;;;;;;16.73;30.71;99213.28;4961251;28;20046;-66
2022/04/09 10:29:46;;;;;;;7.28;3.55;;;;;;;16.99;29.45;99199.63;4956943;28;20046;-66
2022/04/09 10:32:11;;;;;;;11.93;3.65;;;;;;;15.83;30.01;99210.09;4959229;28;20063;-67
2022/04/09 10:34:50;;;;;;;6.78;3.17;;;;;;;14.12;33.01;99215.09;4967540;28;20124;-65
2022/04/09 10:37:15;;;;;;;10.63;3.88;;;;;;;13.67;34.48;99221.91;4968649;28;20042;-66
2022/04/09 10:39:45;;;;;;;7.10;3.00;;;;;;;14.48;34.03;99209.84;4969499;28;20518;-66
2022/04/09 10:42:30;;;;;;;12.57;5.20;;;;;;;15.51;32.68;99218.78;4968129;28;20133;-66
2022/04/09 10:44:56;;;;;;;12.55;3.75;;;;;;;15.67;31.79;99213.06;4968089;28;20062;-65
2022/04/09 10:47:21;;;;;;;12.15;3.63;;;;;;;15.60;31.92;99215.41;4967295;28;20487;-66
2022/04/09 10:50:02;;;;;;;8.80;3.10;;;;;;;15.04;31.79;99218.00;4968525;28;20058;-65
2022/04/09 10:52:30;;;;;;;11.45;3.33;;;;;;;14.49;32.71;99225.63;4966548;28;20042;-66
2022/04/09 10:55:05;;;;;;;9.13;4.03;;;;;;;14.11;34.01;99234.59;4968533;28;20518;-66
2022/04/09 10:57:44;;;;;;;13.75;3.85;;;;;;;14.00;34.75;99225.75;4967821;28;20043;-67
2022/04/09 11:00:22;;;;;;;6.88;2.95;;;;;;;13.65;34.56;99215.88;4966947;28;20089;-66
2022/04/09 11:03:14;;;;;;;6.60;3.03;;;;;;;13.17;35.05;99226.25;4965990;28;20034;-67
2022/04/09 11:05:41;;;;;;;11.73;4.00;;;;;;;13.13;35.66;99219.50;4965643;28;20113;-67
2022/04/09 11:08:08;;;;;;;17.02;4.65;;;;;;;13.10;37.35;99215.25;4967062;28;20802;-66
2022/04/09 11:10:34;;;;;;;9.45;3.38;;;;;;;12.83;36.85;99220.63;4965956;28;20118;-66
2022/04/09 11:13:00;;;;;;;13.35;4.32;;;;;;;12.70;37.85;99217.97;4966944;28;20111;-66
2022/04/09 11:15:27;;;;;;;14.43;4.75;;;;;;;12.46;37.80;99218.66;4967052;28;20058;-67
2022/04/09 11:18:02;;;;;;;8.48;4.45;;;;;;;12.22;37.51;99218.44;4967045;28;20113;-67
2022/04/09 11:20:33;;;;;;;10.30;3.22;;;;;;;12.30;37.05;99217.94;4965402;28;20031;-67
2022/04/09 11:23:07;;;;;;;12.00;3.80;;;;;;;12.14;37.16;99211.97;4965138;28;20470;-66
2022/04/09 11:25:33;;;;;;;10.52;4.18;;;;;;;12.08;37.35;99209.72;4967323;28;20038;-66
2022/04/09 11:28:06;;;;;;;7.72;3.15;;;;;;;12.10;39.51;99213.97;4967215;28;20181;-68
2022/04/09 11:30:32;;;;;;;18.88;4.05;;;;;;;11.80;37.44;99209.66;4967157;28;20170;-66